メインページ
METAR-TAF:

METAR-TAF

空港 :

リガ, ラトビア

リガ国際空港

緯度: 56-55N, 経度: 023-58E, 海抜: 10m

現時点の気象観測

当レポートは42分前の13:50(UTC)に作成
北/北西の風 4kt
気温 -1°C
湿度 86%
気圧 1014 hPa
視程10km以上
高度2000ftの雲は散在している
高度3300ftの千切れ雲あり

METAR: EVRA 211350Z 34004KT 9999 SCT020 BKN033 M01/M03 Q1014 R36/190095 NOSIG

時間: 16:32 (14:32 UTC)

予報

当レポートは3時間27分前の11:05(UTC)に作成
予報は21日の 12時(UTC)から 22日の 12時(UTC)まで有効
変向風 2kt
視程: 9000m
高度2000ftの千切れ雲あり
21日の 12時(UTC)から 21日の 18時(UTC)まで一時的に
視程: 3000m
高度1000ftの千切れ雲あり
小雪, 靄
21日の 18時(UTC)から 22日の 09時(UTC)まで一時的に
視程: 0700m
高度100ftの千切れ雲あり
着氷性の霧
22日の 03時(UTC)から 22日の 05時(UTC)まで徐々に
南西の風 7kt

TAF: EVRA 211105Z 2112/2212 VRB02KT 9000 BKN020 TEMPO 2112/2118 3000 -SN BR BKN010 TEMPO 2118/2209 0700 FZFG BKN001 BECMG 2203/2205 23007KT

4,000以上の空港の気象観測と天気予報(METAR報とTAF報)

利用可能な観測所は地図上に黄色い丸と赤い丸で示す。

丸の上にカーソルを重ねると観測所名を参照できる。

次にクリックすると気象観測と天気予報を参照できる。

マップの切り替え:黒色「×」印の緑ボタンをクリックして拡大、「-」印の緑ボタンをクリックして縮小、緑色の三角印をクリックして隣りの地図に切り替え


METAR-TAF: